sensor_id;sensor_type;location;lat;lon;timestamp;P1;durP1;ratioP1;P2;durP2;ratioP2
21339;SDS011;10828;47.064;15.422;2023-09-19T00:00:42;13.20;;;4.13;;
21339;SDS011;10828;47.064;15.422;2023-09-19T00:03:09;11.70;;;4.13;;
21339;SDS011;10828;47.064;15.422;2023-09-19T00:05:37;11.83;;;3.87;;
21339;SDS011;10828;47.064;15.422;2023-09-19T00:08:03;9.57;;;3.57;;
21339;SDS011;10828;47.064;15.422;2023-09-19T00:10:30;15.20;;;5.07;;
21339;SDS011;10828;47.064;15.422;2023-09-19T00:12:59;10.10;;;3.67;;
21339;SDS011;10828;47.064;15.422;2023-09-19T00:15:42;13.17;;;3.97;;
21339;SDS011;10828;47.064;15.422;2023-09-19T00:18:13;8.60;;;3.77;;
21339;SDS011;10828;47.064;15.422;2023-09-19T00:20:40;8.00;;;3.50;;
21339;SDS011;10828;47.064;15.422;2023-09-19T00:23:07;11.57;;;3.30;;
21339;SDS011;10828;47.064;15.422;2023-09-19T00:25:36;8.87;;;3.20;;
21339;SDS011;10828;47.064;15.422;2023-09-19T00:28:03;13.57;;;3.73;;
21339;SDS011;10828;47.064;15.422;2023-09-19T00:30:31;10.40;;;3.47;;
21339;SDS011;10828;47.064;15.422;2023-09-19T00:32:58;12.80;;;3.23;;
21339;SDS011;10828;47.064;15.422;2023-09-19T00:35:23;5.97;;;3.10;;
21339;SDS011;10828;47.064;15.422;2023-09-19T00:37:51;9.13;;;3.40;;
21339;SDS011;10828;47.064;15.422;2023-09-19T00:40:17;14.37;;;3.10;;
21339;SDS011;10828;47.064;15.422;2023-09-19T00:42:43;8.90;;;3.50;;
21339;SDS011;10828;47.064;15.422;2023-09-19T00:45:11;7.70;;;3.00;;
21339;SDS011;10828;47.064;15.422;2023-09-19T00:47:38;15.97;;;5.07;;
21339;SDS011;10828;47.064;15.422;2023-09-19T00:50:25;8.20;;;3.70;;
21339;SDS011;10828;47.064;15.422;2023-09-19T00:52:53;10.83;;;3.30;;
21339;SDS011;10828;47.064;15.422;2023-09-19T00:55:23;10.83;;;3.30;;
21339;SDS011;10828;47.064;15.422;2023-09-19T00:57:50;9.03;;;3.23;;
21339;SDS011;10828;47.064;15.422;2023-09-19T01:00:15;4.97;;;2.50;;
21339;SDS011;10828;47.064;15.422;2023-09-19T01:02:44;7.67;;;2.60;;
21339;SDS011;10828;47.064;15.422;2023-09-19T01:05:11;13.63;;;2.70;;
21339;SDS011;10828;47.064;15.422;2023-09-19T01:07:37;11.50;;;2.53;;
21339;SDS011;10828;47.064;15.422;2023-09-19T01:10:07;9.27;;;2.20;;
21339;SDS011;10828;47.064;15.422;2023-09-19T01:12:47;9.97;;;2.30;;
21339;SDS011;10828;47.064;15.422;2023-09-19T01:15:38;5.67;;;1.87;;
21339;SDS011;10828;47.064;15.422;2023-09-19T01:18:27;7.40;;;2.27;;
21339;SDS011;10828;47.064;15.422;2023-09-19T01:29:48;5.63;;;2.00;;
21339;SDS011;10828;47.064;15.422;2023-09-19T01:32:18;10.63;;;2.13;;
21339;SDS011;10828;47.064;15.422;2023-09-19T01:34:50;4.30;;;2.27;;
21339;SDS011;10828;47.064;15.422;2023-09-19T01:37:21;6.90;;;2.20;;
21339;SDS011;10828;47.064;15.422;2023-09-19T01:40:12;5.87;;;1.83;;
21339;SDS011;10828;47.064;15.422;2023-09-19T01:51:04;6.43;;;1.93;;
21339;SDS011;10828;47.064;15.422;2023-09-19T01:53:41;4.47;;;1.63;;
21339;SDS011;10828;47.064;15.422;2023-09-19T01:56:34;4.33;;;1.63;;
21339;SDS011;10828;47.064;15.422;2023-09-19T01:59:13;5.10;;;1.80;;
21339;SDS011;10828;47.064;15.422;2023-09-19T02:01:41;4.20;;;1.77;;
21339;SDS011;10828;47.064;15.422;2023-09-19T02:04:09;7.60;;;1.90;;
21339;SDS011;10828;47.064;15.422;2023-09-19T02:06:36;5.60;;;1.60;;
21339;SDS011;10828;47.064;15.422;2023-09-19T02:09:05;3.77;;;1.67;;
21339;SDS011;10828;47.064;15.422;2023-09-19T02:11:32;5.60;;;1.73;;
21339;SDS011;10828;47.064;15.422;2023-09-19T02:13:57;5.93;;;2.10;;
21339;SDS011;10828;47.064;15.422;2023-09-19T02:16:25;5.10;;;1.70;;
21339;SDS011;10828;47.064;15.422;2023-09-19T02:18:51;4.93;;;1.57;;
21339;SDS011;10828;47.064;15.422;2023-09-19T02:21:17;4.90;;;1.80;;
21339;SDS011;10828;47.064;15.422;2023-09-19T02:23:46;4.03;;;1.30;;
21339;SDS011;10828;47.064;15.422;2023-09-19T02:26:12;3.10;;;1.37;;
21339;SDS011;10828;47.064;15.422;2023-09-19T02:28:38;2.27;;;1.10;;
21339;SDS011;10828;47.064;15.422;2023-09-19T02:31:05;3.47;;;1.43;;
21339;SDS011;10828;47.064;15.422;2023-09-19T02:33:30;3.83;;;1.53;;
21339;SDS011;10828;47.064;15.422;2023-09-19T02:35:57;6.53;;;1.70;;
21339;SDS011;10828;47.064;15.422;2023-09-19T02:38:24;3.00;;;1.10;;
21339;SDS011;10828;47.064;15.422;2023-09-19T02:40:52;3.87;;;1.20;;
21339;SDS011;10828;47.064;15.422;2023-09-19T02:43:20;2.90;;;1.00;;
21339;SDS011;10828;47.064;15.422;2023-09-19T02:45:46;7.50;;;1.17;;
21339;SDS011;10828;47.064;15.422;2023-09-19T02:48:21;1.63;;;0.83;;
21339;SDS011;10828;47.064;15.422;2023-09-19T02:50:49;5.70;;;1.40;;
21339;SDS011;10828;47.064;15.422;2023-09-19T02:53:15;4.47;;;1.13;;
21339;SDS011;10828;47.064;15.422;2023-09-19T02:55:42;6.27;;;1.00;;
21339;SDS011;10828;47.064;15.422;2023-09-19T02:58:08;3.90;;;1.17;;
21339;SDS011;10828;47.064;15.422;2023-09-19T03:00:36;2.00;;;0.97;;
21339;SDS011;10828;47.064;15.422;2023-09-19T03:03:02;2.67;;;1.03;;
21339;SDS011;10828;47.064;15.422;2023-09-19T03:05:28;3.53;;;0.90;;
21339;SDS011;10828;47.064;15.422;2023-09-19T03:07:55;2.70;;;0.73;;
21339;SDS011;10828;47.064;15.422;2023-09-19T03:10:22;2.00;;;0.83;;
21339;SDS011;10828;47.064;15.422;2023-09-19T03:12:49;2.73;;;1.10;;
21339;SDS011;10828;47.064;15.422;2023-09-19T03:15:15;2.50;;;0.80;;
21339;SDS011;10828;47.064;15.422;2023-09-19T03:17:43;1.80;;;0.77;;
21339;SDS011;10828;47.064;15.422;2023-09-19T03:20:12;2.40;;;0.93;;
21339;SDS011;10828;47.064;15.422;2023-09-19T03:22:39;2.43;;;0.77;;
21339;SDS011;10828;47.064;15.422;2023-09-19T03:25:05;1.60;;;0.73;;
21339;SDS011;10828;47.064;15.422;2023-09-19T03:27:33;4.10;;;1.00;;
21339;SDS011;10828;47.064;15.422;2023-09-19T03:30:00;4.27;;;0.90;;
21339;SDS011;10828;47.064;15.422;2023-09-19T03:32:25;1.80;;;0.80;;
21339;SDS011;10828;47.064;15.422;2023-09-19T03:34:51;3.10;;;0.70;;
21339;SDS011;10828;47.064;15.422;2023-09-19T03:37:17;1.97;;;0.73;;
21339;SDS011;10828;47.064;15.422;2023-09-19T03:39:44;2.37;;;0.87;;
21339;SDS011;10828;47.064;15.422;2023-09-19T03:42:09;1.60;;;0.77;;
21339;SDS011;10828;47.064;15.422;2023-09-19T03:44:35;2.20;;;1.00;;
21339;SDS011;10828;47.064;15.422;2023-09-19T03:47:00;1.93;;;0.90;;
21339;SDS011;10828;47.064;15.422;2023-09-19T03:49:26;5.07;;;1.23;;
21339;SDS011;10828;47.064;15.422;2023-09-19T03:51:51;2.27;;;0.97;;
21339;SDS011;10828;47.064;15.422;2023-09-19T03:54:17;3.43;;;1.00;;
21339;SDS011;10828;47.064;15.422;2023-09-19T03:56:44;2.63;;;0.70;;
21339;SDS011;10828;47.064;15.422;2023-09-19T03:59:11;1.47;;;0.70;;
21339;SDS011;10828;47.064;15.422;2023-09-19T04:01:40;3.37;;;0.80;;
21339;SDS011;10828;47.064;15.422;2023-09-19T04:04:06;3.93;;;1.10;;
21339;SDS011;10828;47.064;15.422;2023-09-19T04:06:34;8.43;;;1.10;;
21339;SDS011;10828;47.064;15.422;2023-09-19T04:09:01;6.20;;;1.43;;
21339;SDS011;10828;47.064;15.422;2023-09-19T04:11:30;4.87;;;1.40;;
21339;SDS011;10828;47.064;15.422;2023-09-19T04:13:56;5.57;;;1.27;;
21339;SDS011;10828;47.064;15.422;2023-09-19T04:16:22;4.57;;;1.00;;
21339;SDS011;10828;47.064;15.422;2023-09-19T04:18:48;3.17;;;0.90;;
21339;SDS011;10828;47.064;15.422;2023-09-19T04:21:13;3.23;;;1.00;;
21339;SDS011;10828;47.064;15.422;2023-09-19T04:23:39;3.77;;;0.87;;
21339;SDS011;10828;47.064;15.422;2023-09-19T04:26:05;2.63;;;1.10;;
21339;SDS011;10828;47.064;15.422;2023-09-19T04:28:31;2.77;;;0.97;;
21339;SDS011;10828;47.064;15.422;2023-09-19T04:30:59;3.70;;;1.20;;
21339;SDS011;10828;47.064;15.422;2023-09-19T04:33:25;3.40;;;1.20;;
21339;SDS011;10828;47.064;15.422;2023-09-19T04:35:52;4.97;;;1.10;;
21339;SDS011;10828;47.064;15.422;2023-09-19T04:38:19;3.63;;;1.00;;
21339;SDS011;10828;47.064;15.422;2023-09-19T04:40:45;2.13;;;1.00;;
21339;SDS011;10828;47.064;15.422;2023-09-19T04:43:11;4.00;;;0.90;;
21339;SDS011;10828;47.064;15.422;2023-09-19T04:45:37;3.13;;;0.80;;
21339;SDS011;10828;47.064;15.422;2023-09-19T04:48:04;2.17;;;0.87;;
21339;SDS011;10828;47.064;15.422;2023-09-19T04:50:36;5.63;;;0.93;;
21339;SDS011;10828;47.064;15.422;2023-09-19T04:53:04;3.17;;;0.80;;
21339;SDS011;10828;47.064;15.422;2023-09-19T04:55:32;4.17;;;1.00;;
21339;SDS011;10828;47.064;15.422;2023-09-19T04:57:57;5.90;;;0.90;;
21339;SDS011;10828;47.064;15.422;2023-09-19T05:00:23;6.17;;;1.33;;
21339;SDS011;10828;47.064;15.422;2023-09-19T05:02:50;7.87;;;2.00;;
21339;SDS011;10828;47.064;15.422;2023-09-19T05:05:18;7.10;;;1.40;;
21339;SDS011;10828;47.064;15.422;2023-09-19T05:07:45;5.63;;;1.40;;
21339;SDS011;10828;47.064;15.422;2023-09-19T05:10:11;5.90;;;1.50;;
21339;SDS011;10828;47.064;15.422;2023-09-19T05:12:37;6.83;;;2.20;;
21339;SDS011;10828;47.064;15.422;2023-09-19T05:15:03;5.77;;;1.90;;
21339;SDS011;10828;47.064;15.422;2023-09-19T05:17:32;14.13;;;1.93;;
21339;SDS011;10828;47.064;15.422;2023-09-19T05:19:58;4.90;;;1.37;;
21339;SDS011;10828;47.064;15.422;2023-09-19T05:22:28;8.43;;;1.90;;
21339;SDS011;10828;47.064;15.422;2023-09-19T05:24:54;9.43;;;2.30;;
21339;SDS011;10828;47.064;15.422;2023-09-19T05:27:21;5.40;;;1.40;;
21339;SDS011;10828;47.064;15.422;2023-09-19T05:29:46;5.20;;;1.33;;
21339;SDS011;10828;47.064;15.422;2023-09-19T05:32:14;3.30;;;1.40;;
21339;SDS011;10828;47.064;15.422;2023-09-19T05:34:40;4.33;;;1.57;;
21339;SDS011;10828;47.064;15.422;2023-09-19T05:37:06;8.47;;;2.07;;
21339;SDS011;10828;47.064;15.422;2023-09-19T05:39:32;5.93;;;1.60;;
21339;SDS011;10828;47.064;15.422;2023-09-19T05:41:58;5.53;;;1.27;;
21339;SDS011;10828;47.064;15.422;2023-09-19T05:44:25;6.50;;;1.53;;
21339;SDS011;10828;47.064;15.422;2023-09-19T05:46:53;6.67;;;1.73;;
21339;SDS011;10828;47.064;15.422;2023-09-19T05:49:21;8.83;;;2.77;;
21339;SDS011;10828;47.064;15.422;2023-09-19T05:51:51;5.13;;;2.03;;
21339;SDS011;10828;47.064;15.422;2023-09-19T05:54:21;5.67;;;2.07;;
21339;SDS011;10828;47.064;15.422;2023-09-19T05:56:48;5.70;;;2.13;;
21339;SDS011;10828;47.064;15.422;2023-09-19T06:02:15;5.83;;;1.90;;
21339;SDS011;10828;47.064;15.422;2023-09-19T06:04:44;8.43;;;2.10;;
21339;SDS011;10828;47.064;15.422;2023-09-19T06:07:09;4.47;;;1.50;;
21339;SDS011;10828;47.064;15.422;2023-09-19T06:09:37;7.80;;;1.90;;
21339;SDS011;10828;47.064;15.422;2023-09-19T06:12:03;6.73;;;2.80;;
21339;SDS011;10828;47.064;15.422;2023-09-19T06:14:32;10.03;;;2.30;;
21339;SDS011;10828;47.064;15.422;2023-09-19T06:16:58;3.50;;;1.53;;
21339;SDS011;10828;47.064;15.422;2023-09-19T06:19:23;4.93;;;1.83;;
21339;SDS011;10828;47.064;15.422;2023-09-19T06:21:51;4.07;;;1.80;;
21339;SDS011;10828;47.064;15.422;2023-09-19T06:24:21;5.53;;;1.90;;
21339;SDS011;10828;47.064;15.422;2023-09-19T06:26:48;4.43;;;1.63;;
21339;SDS011;10828;47.064;15.422;2023-09-19T06:29:16;6.43;;;2.00;;
21339;SDS011;10828;47.064;15.422;2023-09-19T06:31:46;4.77;;;2.20;;
21339;SDS011;10828;47.064;15.422;2023-09-19T06:34:17;6.07;;;2.30;;
21339;SDS011;10828;47.064;15.422;2023-09-19T06:36:45;6.10;;;2.43;;
21339;SDS011;10828;47.064;15.422;2023-09-19T06:39:17;6.97;;;2.37;;
21339;SDS011;10828;47.064;15.422;2023-09-19T06:41:43;8.37;;;2.43;;
21339;SDS011;10828;47.064;15.422;2023-09-19T06:44:10;9.57;;;1.90;;
21339;SDS011;10828;47.064;15.422;2023-09-19T06:46:38;8.40;;;2.43;;
21339;SDS011;10828;47.064;15.422;2023-09-19T06:49:05;5.60;;;2.23;;
21339;SDS011;10828;47.064;15.422;2023-09-19T06:51:32;6.30;;;2.20;;
21339;SDS011;10828;47.064;15.422;2023-09-19T06:54:08;6.60;;;2.10;;
21339;SDS011;10828;47.064;15.422;2023-09-19T06:56:37;6.93;;;2.60;;
21339;SDS011;10828;47.064;15.422;2023-09-19T06:59:05;7.40;;;2.23;;
21339;SDS011;10828;47.064;15.422;2023-09-19T07:01:32;8.03;;;2.47;;
21339;SDS011;10828;47.064;15.422;2023-09-19T08:04:49;6.67;;;2.27;;
21339;SDS011;10828;47.064;15.422;2023-09-19T08:08:08;7.00;;;2.50;;
21339;SDS011;10828;47.064;15.422;2023-09-19T09:42:28;8.20;;;2.03;;
21339;SDS011;10828;47.064;15.422;2023-09-19T15:27:25;2.60;;;1.00;;
21339;SDS011;10828;47.064;15.422;2023-09-19T15:29:51;5.23;;;0.90;;
21339;SDS011;10828;47.064;15.422;2023-09-19T15:32:18;3.30;;;1.40;;
21339;SDS011;10828;47.064;15.422;2023-09-19T15:34:44;3.90;;;1.03;;
21339;SDS011;10828;47.064;15.422;2023-09-19T15:37:12;2.93;;;1.00;;
21339;SDS011;10828;47.064;15.422;2023-09-19T15:39:39;3.17;;;1.20;;
21339;SDS011;10828;47.064;15.422;2023-09-19T15:42:05;3.27;;;0.90;;
21339;SDS011;10828;47.064;15.422;2023-09-19T15:47:03;2.00;;;1.00;;
21339;SDS011;10828;47.064;15.422;2023-09-19T15:49:31;4.90;;;1.60;;
21339;SDS011;10828;47.064;15.422;2023-09-19T15:51:59;8.40;;;2.10;;
21339;SDS011;10828;47.064;15.422;2023-09-19T15:54:26;4.03;;;0.90;;
21339;SDS011;10828;47.064;15.422;2023-09-19T15:56:53;2.30;;;1.00;;
21339;SDS011;10828;47.064;15.422;2023-09-19T15:59:20;3.17;;;1.17;;
21339;SDS011;10828;47.064;15.422;2023-09-19T16:01:47;3.30;;;1.10;;
21339;SDS011;10828;47.064;15.422;2023-09-19T16:04:15;3.87;;;1.00;;
21339;SDS011;10828;47.064;15.422;2023-09-19T16:06:42;3.23;;;1.50;;
21339;SDS011;10828;47.064;15.422;2023-09-19T16:09:09;3.23;;;1.10;;
21339;SDS011;10828;47.064;15.422;2023-09-19T16:11:36;3.27;;;1.00;;
21339;SDS011;10828;47.064;15.422;2023-09-19T16:14:03;3.43;;;0.80;;
21339;SDS011;10828;47.064;15.422;2023-09-19T16:16:31;2.50;;;1.07;;
21339;SDS011;10828;47.064;15.422;2023-09-19T16:19:00;2.70;;;1.30;;
21339;SDS011;10828;47.064;15.422;2023-09-19T16:21:31;2.40;;;1.00;;
21339;SDS011;10828;47.064;15.422;2023-09-19T16:24:00;2.87;;;1.30;;
21339;SDS011;10828;47.064;15.422;2023-09-19T16:29:00;5.87;;;1.30;;
21339;SDS011;10828;47.064;15.422;2023-09-19T16:31:38;2.50;;;1.10;;
21339;SDS011;10828;47.064;15.422;2023-09-19T16:34:10;2.97;;;1.23;;
21339;SDS011;10828;47.064;15.422;2023-09-19T16:36:47;3.27;;;1.10;;
21339;SDS011;10828;47.064;15.422;2023-09-19T16:39:17;5.10;;;1.20;;
21339;SDS011;10828;47.064;15.422;2023-09-19T16:41:43;5.00;;;1.10;;
21339;SDS011;10828;47.064;15.422;2023-09-19T16:44:11;3.33;;;1.37;;
21339;SDS011;10828;47.064;15.422;2023-09-19T16:46:39;6.50;;;1.57;;
21339;SDS011;10828;47.064;15.422;2023-09-19T16:49:09;2.47;;;1.03;;
21339;SDS011;10828;47.064;15.422;2023-09-19T16:51:36;3.10;;;1.03;;
21339;SDS011;10828;47.064;15.422;2023-09-19T16:54:03;4.10;;;1.20;;
21339;SDS011;10828;47.064;15.422;2023-09-19T16:56:29;5.20;;;1.23;;
21339;SDS011;10828;47.064;15.422;2023-09-19T16:59:01;5.33;;;1.20;;
21339;SDS011;10828;47.064;15.422;2023-09-19T17:01:30;3.47;;;1.47;;
21339;SDS011;10828;47.064;15.422;2023-09-19T17:03:58;2.93;;;1.23;;
21339;SDS011;10828;47.064;15.422;2023-09-19T17:06:25;2.40;;;1.00;;
21339;SDS011;10828;47.064;15.422;2023-09-19T17:08:52;3.73;;;1.27;;
21339;SDS011;10828;47.064;15.422;2023-09-19T17:11:19;4.57;;;1.00;;
21339;SDS011;10828;47.064;15.422;2023-09-19T17:13:46;3.93;;;1.17;;
21339;SDS011;10828;47.064;15.422;2023-09-19T17:16:16;7.63;;;1.00;;
21339;SDS011;10828;47.064;15.422;2023-09-19T17:18:54;4.10;;;1.07;;
21339;SDS011;10828;47.064;15.422;2023-09-19T17:21:22;9.67;;;1.83;;
21339;SDS011;10828;47.064;15.422;2023-09-19T17:23:52;8.53;;;1.50;;
21339;SDS011;10828;47.064;15.422;2023-09-19T17:26:20;3.20;;;1.20;;
21339;SDS011;10828;47.064;15.422;2023-09-19T17:29:01;4.83;;;2.13;;
21339;SDS011;10828;47.064;15.422;2023-09-19T17:31:28;3.37;;;1.17;;
21339;SDS011;10828;47.064;15.422;2023-09-19T17:36:26;1.83;;;0.90;;
21339;SDS011;10828;47.064;15.422;2023-09-19T17:38:58;3.23;;;1.10;;
21339;SDS011;10828;47.064;15.422;2023-09-19T17:41:27;4.20;;;1.03;;
21339;SDS011;10828;47.064;15.422;2023-09-19T17:43:58;8.40;;;3.10;;
21339;SDS011;10828;47.064;15.422;2023-09-19T17:46:25;6.37;;;1.70;;
21339;SDS011;10828;47.064;15.422;2023-09-19T17:48:54;11.77;;;2.10;;
21339;SDS011;10828;47.064;15.422;2023-09-19T17:51:27;12.13;;;2.20;;
21339;SDS011;10828;47.064;15.422;2023-09-19T17:53:57;7.67;;;2.27;;
21339;SDS011;10828;47.064;15.422;2023-09-19T17:56:24;7.47;;;1.70;;
21339;SDS011;10828;47.064;15.422;2023-09-19T17:58:52;6.20;;;1.80;;
21339;SDS011;10828;47.064;15.422;2023-09-19T18:01:24;11.40;;;2.27;;
21339;SDS011;10828;47.064;15.422;2023-09-19T18:04:02;13.60;;;3.57;;
21339;SDS011;10828;47.064;15.422;2023-09-19T18:06:30;8.87;;;2.53;;
21339;SDS011;10828;47.064;15.422;2023-09-19T18:08:59;3.80;;;1.87;;
21339;SDS011;10828;47.064;15.422;2023-09-19T18:11:33;5.53;;;1.80;;
21339;SDS011;10828;47.064;15.422;2023-09-19T18:14:03;8.60;;;2.00;;
21339;SDS011;10828;47.064;15.422;2023-09-19T18:16:32;8.47;;;2.10;;
21339;SDS011;10828;47.064;15.422;2023-09-19T18:19:02;8.33;;;2.00;;
21339;SDS011;10828;47.064;15.422;2023-09-19T18:21:34;8.63;;;2.00;;
21339;SDS011;10828;47.064;15.422;2023-09-19T18:24:05;7.07;;;2.10;;
21339;SDS011;10828;47.064;15.422;2023-09-19T18:26:45;4.23;;;1.63;;
21339;SDS011;10828;47.064;15.422;2023-09-19T18:29:14;13.87;;;3.20;;
21339;SDS011;10828;47.064;15.422;2023-09-19T18:31:41;3.97;;;1.77;;
21339;SDS011;10828;47.064;15.422;2023-09-19T18:34:13;6.57;;;2.73;;
21339;SDS011;10828;47.064;15.422;2023-09-19T18:36:50;5.17;;;2.17;;
21339;SDS011;10828;47.064;15.422;2023-09-19T18:39:20;7.67;;;2.00;;
21339;SDS011;10828;47.064;15.422;2023-09-19T18:41:50;6.60;;;2.23;;
21339;SDS011;10828;47.064;15.422;2023-09-19T18:44:24;5.00;;;1.83;;
21339;SDS011;10828;47.064;15.422;2023-09-19T18:46:51;5.73;;;1.90;;
21339;SDS011;10828;47.064;15.422;2023-09-19T18:49:20;4.53;;;1.90;;
21339;SDS011;10828;47.064;15.422;2023-09-19T18:51:48;5.53;;;1.90;;
21339;SDS011;10828;47.064;15.422;2023-09-19T18:54:16;5.37;;;2.37;;
21339;SDS011;10828;47.064;15.422;2023-09-19T18:56:51;6.20;;;1.80;;
21339;SDS011;10828;47.064;15.422;2023-09-19T18:59:19;7.67;;;2.00;;
21339;SDS011;10828;47.064;15.422;2023-09-19T19:01:48;5.03;;;2.03;;
21339;SDS011;10828;47.064;15.422;2023-09-19T19:04:17;5.83;;;2.30;;
21339;SDS011;10828;47.064;15.422;2023-09-19T19:06:44;5.57;;;2.00;;
21339;SDS011;10828;47.064;15.422;2023-09-19T19:09:16;4.23;;;1.77;;
21339;SDS011;10828;47.064;15.422;2023-09-19T19:11:44;7.63;;;3.20;;
21339;SDS011;10828;47.064;15.422;2023-09-19T19:14:10;4.03;;;1.70;;
21339;SDS011;10828;47.064;15.422;2023-09-19T19:16:39;5.87;;;3.07;;
21339;SDS011;10828;47.064;15.422;2023-09-19T19:19:08;10.80;;;3.93;;
21339;SDS011;10828;47.064;15.422;2023-09-19T19:21:36;6.73;;;2.33;;
21339;SDS011;10828;47.064;15.422;2023-09-19T19:24:05;4.43;;;1.73;;
21339;SDS011;10828;47.064;15.422;2023-09-19T19:26:34;4.50;;;1.60;;
21339;SDS011;10828;47.064;15.422;2023-09-19T19:29:02;4.30;;;1.90;;
21339;SDS011;10828;47.064;15.422;2023-09-19T19:31:40;3.67;;;1.90;;
21339;SDS011;10828;47.064;15.422;2023-09-19T19:36:38;6.93;;;1.90;;
21339;SDS011;10828;47.064;15.422;2023-09-19T19:39:11;5.27;;;2.23;;
21339;SDS011;10828;47.064;15.422;2023-09-19T19:41:41;7.17;;;2.57;;
21339;SDS011;10828;47.064;15.422;2023-09-19T19:44:10;6.70;;;2.30;;
21339;SDS011;10828;47.064;15.422;2023-09-19T19:46:39;6.63;;;2.07;;
21339;SDS011;10828;47.064;15.422;2023-09-19T19:49:10;7.53;;;2.47;;
21339;SDS011;10828;47.064;15.422;2023-09-19T19:51:41;5.70;;;1.80;;
21339;SDS011;10828;47.064;15.422;2023-09-19T19:54:18;5.60;;;2.67;;
21339;SDS011;10828;47.064;15.422;2023-09-19T19:56:45;8.77;;;2.53;;
21339;SDS011;10828;47.064;15.422;2023-09-19T19:59:14;6.13;;;2.20;;
21339;SDS011;10828;47.064;15.422;2023-09-19T20:01:45;5.13;;;2.20;;
21339;SDS011;10828;47.064;15.422;2023-09-19T20:04:14;5.33;;;2.13;;
21339;SDS011;10828;47.064;15.422;2023-09-19T20:06:46;6.37;;;2.53;;
21339;SDS011;10828;47.064;15.422;2023-09-19T20:09:23;5.33;;;1.90;;
21339;SDS011;10828;47.064;15.422;2023-09-19T20:11:52;5.07;;;2.17;;
21339;SDS011;10828;47.064;15.422;2023-09-19T20:14:19;4.40;;;1.73;;
21339;SDS011;10828;47.064;15.422;2023-09-19T20:16:46;5.10;;;2.13;;
21339;SDS011;10828;47.064;15.422;2023-09-19T20:19:15;4.80;;;1.93;;
21339;SDS011;10828;47.064;15.422;2023-09-19T20:21:41;10.07;;;2.53;;
21339;SDS011;10828;47.064;15.422;2023-09-19T20:24:10;6.10;;;2.10;;
21339;SDS011;10828;47.064;15.422;2023-09-19T20:26:41;5.03;;;2.10;;
21339;SDS011;10828;47.064;15.422;2023-09-19T20:29:08;9.40;;;2.17;;
21339;SDS011;10828;47.064;15.422;2023-09-19T20:31:35;7.90;;;2.10;;
21339;SDS011;10828;47.064;15.422;2023-09-19T20:34:03;4.67;;;2.07;;
21339;SDS011;10828;47.064;15.422;2023-09-19T20:36:29;7.77;;;2.23;;
21339;SDS011;10828;47.064;15.422;2023-09-19T20:38:59;9.43;;;2.70;;
21339;SDS011;10828;47.064;15.422;2023-09-19T20:41:26;9.13;;;2.43;;
21339;SDS011;10828;47.064;15.422;2023-09-19T20:43:53;6.40;;;2.10;;
21339;SDS011;10828;47.064;15.422;2023-09-19T20:46:20;7.77;;;1.83;;
21339;SDS011;10828;47.064;15.422;2023-09-19T20:48:48;6.57;;;2.10;;
21339;SDS011;10828;47.064;15.422;2023-09-19T20:51:17;3.73;;;1.83;;
21339;SDS011;10828;47.064;15.422;2023-09-19T20:56:24;5.60;;;1.77;;
21339;SDS011;10828;47.064;15.422;2023-09-19T20:58:49;5.43;;;1.90;;
21339;SDS011;10828;47.064;15.422;2023-09-19T21:01:15;8.43;;;1.90;;
21339;SDS011;10828;47.064;15.422;2023-09-19T21:03:46;5.50;;;2.00;;
21339;SDS011;10828;47.064;15.422;2023-09-19T21:06:15;4.77;;;1.93;;
21339;SDS011;10828;47.064;15.422;2023-09-19T21:08:42;3.53;;;1.80;;
21339;SDS011;10828;47.064;15.422;2023-09-19T21:11:16;3.73;;;2.00;;
21339;SDS011;10828;47.064;15.422;2023-09-19T21:13:57;3.83;;;1.93;;
21339;SDS011;10828;47.064;15.422;2023-09-19T21:19:07;7.33;;;2.00;;
21339;SDS011;10828;47.064;15.422;2023-09-19T21:21:34;0.00;;;0.00;;
21339;SDS011;10828;47.064;15.422;2023-09-19T21:24:02;4.80;;;1.50;;
21339;SDS011;10828;47.064;15.422;2023-09-19T21:26:36;4.37;;;1.63;;
21339;SDS011;10828;47.064;15.422;2023-09-19T21:31:52;8.23;;;1.97;;
21339;SDS011;10828;47.064;15.422;2023-09-19T21:34:25;7.20;;;1.87;;
21339;SDS011;10828;47.064;15.422;2023-09-19T21:36:51;4.93;;;1.83;;
21339;SDS011;10828;47.064;15.422;2023-09-19T21:39:25;7.10;;;1.93;;
21339;SDS011;10828;47.064;15.422;2023-09-19T21:41:52;5.87;;;2.00;;
21339;SDS011;10828;47.064;15.422;2023-09-19T21:44:23;3.87;;;1.80;;
21339;SDS011;10828;47.064;15.422;2023-09-19T21:46:51;6.83;;;2.20;;
21339;SDS011;10828;47.064;15.422;2023-09-19T21:49:22;4.87;;;1.83;;
21339;SDS011;10828;47.064;15.422;2023-09-19T21:51:47;5.23;;;2.27;;
21339;SDS011;10828;47.064;15.422;2023-09-19T21:54:26;4.23;;;1.93;;
21339;SDS011;10828;47.064;15.422;2023-09-19T21:56:57;7.90;;;2.03;;
21339;SDS011;10828;47.064;15.422;2023-09-19T21:59:27;5.20;;;2.17;;
21339;SDS011;10828;47.064;15.422;2023-09-19T22:02:04;4.70;;;2.07;;
21339;SDS011;10828;47.064;15.422;2023-09-19T22:04:39;6.70;;;2.23;;
21339;SDS011;10828;47.064;15.422;2023-09-19T22:07:12;7.20;;;1.97;;
21339;SDS011;10828;47.064;15.422;2023-09-19T22:09:38;6.33;;;1.90;;
21339;SDS011;10828;47.064;15.422;2023-09-19T22:12:04;4.23;;;1.80;;
21339;SDS011;10828;47.064;15.422;2023-09-19T22:14:33;7.13;;;2.20;;
21339;SDS011;10828;47.064;15.422;2023-09-19T22:19:56;4.47;;;2.13;;
21339;SDS011;10828;47.064;15.422;2023-09-19T22:22:23;5.07;;;2.10;;
21339;SDS011;10828;47.064;15.422;2023-09-19T22:24:50;5.80;;;1.93;;
21339;SDS011;10828;47.064;15.422;2023-09-19T22:27:21;5.23;;;2.07;;
21339;SDS011;10828;47.064;15.422;2023-09-19T22:29:49;4.80;;;2.23;;
21339;SDS011;10828;47.064;15.422;2023-09-19T22:32:25;2.87;;;1.77;;
21339;SDS011;10828;47.064;15.422;2023-09-19T22:34:53;3.50;;;1.90;;
21339;SDS011;10828;47.064;15.422;2023-09-19T22:37:20;6.27;;;1.90;;
21339;SDS011;10828;47.064;15.422;2023-09-19T22:42:24;8.47;;;2.13;;
21339;SDS011;10828;47.064;15.422;2023-09-19T22:44:50;5.57;;;1.67;;
